»·PEaware :: DAL4528 KDEN-KJAC

DAL4528 :: KDEN-KJAC

FLIGHT INFORMATION

Flight Status: Arrived
Operator:
Delta Air Lines
More flights by this operator :: More flights under this callsign
Pilot: Alex S. (7186)
Aircraft: BOEING 737-800
(B738)
More flights by this aircraft type
Origin: KDEN Denver Intl
United States
Destination: KJAC Jackson Hole
United States
More flights between these airports :: More routes between these airports
Route: YAMMI3 LAR DNW
File this flight plan on PilotEdge
Remarks: PBN / A1B1C1D1S1S2 DOF / 180422 REG / N389DA EET / KZLC0028 OPR / DAL PER / C RMK / TCAS SIMBRIEF
Altitude:
(Current/Filed)
32,000ft
Speed:
(Current/Filed)
467kts
Departed: 22-Apr-18 02:15 PM
Arrived: 22-Apr-18 03:35 PM
Distance/Time
Traveled:
352nm/1:20
Distance/Time
To Go:
Arrived

Flight Plot

Page will automatically refresh every two minutes.


Map Options




Map Legend


Flown Route
Filed Route
Departure Airport
Arrival Airport
Navaid (VOR, NDB)
Fix

Horizontal Profiles

Position Reports

Time Latitude Longitude Heading Altitude Ground
Speed
22-Apr-18 13:42 39.853343 -104.676668 0 5438ft 0kts
22-Apr-18 13:43 39.853343 -104.676668 0 5438ft 0kts
22-Apr-18 13:44 39.853343 -104.676668 0 5438ft 0kts
22-Apr-18 13:45 39.853343 -104.676668 0 5438ft 0kts
22-Apr-18 13:46 39.853343 -104.676668 0 5439ft 0kts
22-Apr-18 13:47 39.853343 -104.676668 0 5439ft 0kts
22-Apr-18 13:48 39.853343 -104.676668 0 5439ft 0kts
22-Apr-18 13:49 39.853343 -104.676668 0 5439ft 0kts
22-Apr-18 13:50 39.853343 -104.676668 0 5439ft 0kts
22-Apr-18 13:51 39.853343 -104.676668 0 5439ft 0kts
22-Apr-18 13:52 39.853343 -104.676668 0 5439ft 0kts
22-Apr-18 13:53 39.853343 -104.676668 0 5439ft 0kts
22-Apr-18 13:54 39.853343 -104.676668 0 5439ft 0kts
22-Apr-18 13:55 39.853343 -104.676668 0 5439ft 0kts
22-Apr-18 13:56 39.853343 -104.676668 0 5439ft 0kts
22-Apr-18 13:57 39.853343 -104.676668 0 5439ft 0kts
22-Apr-18 13:58 39.853343 -104.676668 0 5439ft 0kts
22-Apr-18 13:59 39.853343 -104.676668 0 5439ft 0kts
22-Apr-18 14:00 39.853343 -104.676668 0 5439ft 0kts
22-Apr-18 14:01 39.853343 -104.676668 0 5439ft 0kts
22-Apr-18 14:02 39.853176 -104.676671 0 5439ft 2kts
22-Apr-18 14:03 39.852422 -104.676681 0 5439ft 0kts
22-Apr-18 14:04 39.852422 -104.676681 0 5439ft 0kts
22-Apr-18 14:05 39.852838 -104.677075 282 5439ft 11kts
22-Apr-18 14:06 39.852872 -104.681090 272 5439ft 9kts
22-Apr-18 14:07 39.854661 -104.683987 358 5439ft 14kts
22-Apr-18 14:08 39.858419 -104.683978 0 5439ft 19kts
22-Apr-18 14:09 39.862947 -104.683908 358 5439ft 18kts
22-Apr-18 14:10 39.867265 -104.683884 358 5439ft 0kts
22-Apr-18 14:11 39.868274 -104.684198 287 5439ft 11kts
22-Apr-18 14:12 39.864674 -104.685065 191 5439ft 5kts
22-Apr-18 14:13 39.864347 -104.686344 271 5439ft 12kts
22-Apr-18 14:14 39.877330 -104.687042 0 5439ft 136kts
22-Apr-18 14:15 39.925040 -104.691855 349 7461ft 197kts
22-Apr-18 14:16 39.988794 -104.712812 345 8822ft 270kts
22-Apr-18 14:17 40.065055 -104.739203 342 10524ft 294kts
22-Apr-18 14:18 40.150323 -104.779894 340 11764ft 363kts
22-Apr-18 14:19 40.249214 -104.826184 340 13760ft 380kts
22-Apr-18 14:20 40.351335 -104.873764 340 16237ft 399kts
22-Apr-18 14:21 40.458457 -104.923798 340 18505ft 415kts
22-Apr-18 14:22 40.568972 -104.975716 339 20653ft 428kts
22-Apr-18 14:23 40.576835 -104.979412 339 20796ft 429kts
22-Apr-18 14:43 42.352797 -107.516546 304 32176ft 451kts
22-Apr-18 14:44 42.427343 -107.652738 304 32169ft 451kts
22-Apr-18 14:45 42.501940 -107.789644 304 32162ft 451kts
22-Apr-18 14:46 42.576174 -107.926511 304 32154ft 451kts
22-Apr-18 14:47 42.650188 -108.063590 304 32139ft 451kts
22-Apr-18 14:48 42.724344 -108.201569 303 32132ft 451kts
22-Apr-18 14:49 42.798051 -108.339362 303 32126ft 451kts
22-Apr-18 14:50 42.871682 -108.477639 303 32111ft 451kts
22-Apr-18 14:51 42.945397 -108.616723 303 32110ft 451kts
22-Apr-18 14:52 43.018682 -108.755644 303 32111ft 451kts
22-Apr-18 14:53 43.091778 -108.894862 303 32112ft 451kts
22-Apr-18 14:54 43.164991 -109.034959 302 32122ft 451kts
22-Apr-18 14:55 43.238046 -109.175412 302 31748ft 448kts
22-Apr-18 14:56 43.310302 -109.315006 302 28467ft 451kts
22-Apr-18 14:57 43.382959 -109.456029 303 25072ft 451kts
22-Apr-18 14:58 43.453951 -109.594463 303 23111ft 436kts
22-Apr-18 14:59 43.523920 -109.731551 302 21340ft 432kts
22-Apr-18 15:00 43.591277 -109.864091 302 18608ft 414kts
22-Apr-18 15:01 43.652558 -109.985202 301 17479ft 347kts
22-Apr-18 15:02 43.703152 -110.085013 301 16768ft 291kts
22-Apr-18 15:03 43.745930 -110.170348 300 16169ft 253kts
22-Apr-18 15:04 43.785839 -110.250331 301 15621ft 254kts
22-Apr-18 15:05 43.824262 -110.331498 285 15044ft 247kts
22-Apr-18 15:06 43.822244 -110.426308 262 13179ft 255kts
22-Apr-18 15:07 43.815144 -110.520089 260 11910ft 241kts
22-Apr-18 15:08 43.791642 -110.598782 242 11038ft 213kts
22-Apr-18 15:09 43.751137 -110.656948 217 9638ft 212kts
22-Apr-18 15:10 43.698364 -110.693367 198 8185ft 207kts
22-Apr-18 15:11 43.649775 -110.717030 198 7196ft 159kts
22-Apr-18 15:12 43.606762 -110.738714 200 8182ft 187kts
22-Apr-18 15:13 43.556916 -110.769331 206 10235ft 230kts
22-Apr-18 15:14 43.497378 -110.808956 206 13274ft 241kts
22-Apr-18 15:15 43.435351 -110.849462 207 14016ft 245kts
22-Apr-18 15:16 43.383791 -110.882663 207 14016ft 245kts
22-Apr-18 15:17 43.315631 -110.917964 178 14041ft 304kts
22-Apr-18 15:18 43.255262 -110.827096 103 14041ft 368kts
22-Apr-18 15:19 43.234641 -110.684096 101 14023ft 404kts
22-Apr-18 15:20 43.286118 -110.529461 41 14023ft 406kts
22-Apr-18 15:21 43.376753 -110.442912 8 14019ft 400kts
22-Apr-18 15:22 43.485506 -110.417492 8 14017ft 373kts
22-Apr-18 15:23 43.578920 -110.395162 7 14005ft 315kts
22-Apr-18 15:24 43.650650 -110.378044 7 14017ft 316kts
22-Apr-18 15:25 43.737416 -110.357276 7 14020ft 317kts
22-Apr-18 15:26 43.817564 -110.352448 318 13959ft 260kts
22-Apr-18 15:27 43.820873 -110.445048 260 12560ft 258kts
22-Apr-18 15:28 43.811253 -110.541422 249 11239ft 247kts
22-Apr-18 15:29 43.780827 -110.623080 229 10008ft 231kts
22-Apr-18 15:30 43.732832 -110.675313 210 8875ft 202kts
22-Apr-18 15:31 43.683678 -110.700466 198 7867ft 181kts
22-Apr-18 15:32 43.641346 -110.721147 198 7014ft 147kts
22-Apr-18 15:33 43.604505 -110.739145 195 6459ft 87kts
22-Apr-18 15:34 43.599602 -110.740036 49 6459ft 2kts
22-Apr-18 15:35 43.601931 -110.738772 19 6459ft 14kts
22-Apr-18 15:36 43.603486 -110.737094 108 6459ft 0kts
22-Apr-18 15:37 43.603482 -110.737082 108 6459ft 0kts

Navigation Log

Ident Type
1. KDEN Airport
2. LAR Navaid
3. DNW Navaid
4. KJAC Airport